Time;durP1;ratioP1;P1;durP2;ratioP2;P2;SDS_P1;SDS_P2;PMS_P1;PMS_P2;Temp;Humidity;BMP_temperature;BMP_pressure;BME280_temperature;BME280_humidity;BME280_pressure;Samples;Min_cycle;Max_cycle;Signal;HPM_P1;HPM_P2
2023/07/12 00:31:20;;;;;;;8.77;6.85;;;;;;;26.19;52.84;98676.91;5073419;28;20055;-70
2023/07/12 00:33:47;;;;;;;22.73;7.70;;;;;;;26.01;53.44;98662.19;5086456;28;20102;-70
2023/07/12 00:36:17;;;;;;;7.18;6.47;;;;;;;26.16;52.92;98684.59;5086562;28;20090;-70
2023/07/12 00:38:44;;;;;;;8.13;6.75;;;;;;;26.08;53.13;98684.78;5086305;28;20045;-69
2023/07/12 00:41:19;;;;;;;10.02;6.95;;;;;;;26.09;53.36;98673.72;5086529;28;20058;-70
2023/07/12 00:43:49;;;;;;;7.30;6.32;;;;;;;26.12;53.34;98667.88;5085746;28;20063;-69
2023/07/12 00:46:28;;;;;;;8.52;6.90;;;;;;;26.12;53.04;98665.16;5086418;28;20059;-69
2023/07/12 00:48:55;;;;;;;7.82;7.00;;;;;;;26.11;53.14;98657.22;5085103;28;20040;-70
2023/07/12 00:51:37;;;;;;;9.25;7.80;;;;;;;25.98;53.99;98649.00;5086368;28;20048;-70
2023/07/12 00:54:11;;;;;;;7.50;6.70;;;;;;;26.01;53.81;98649.44;5086268;28;20036;-70
2023/07/12 00:56:38;;;;;;;7.68;6.88;;;;;;;26.02;53.85;98642.97;5085458;28;20120;-70
2023/07/12 00:59:07;;;;;;;9.07;6.85;;;;;;;25.99;53.97;98639.81;5085794;28;20296;-70
2023/07/12 01:01:37;;;;;;;9.85;8.70;;;;;;;26.00;54.05;98636.91;5085483;28;20102;-70
2023/07/12 01:04:05;;;;;;;14.55;9.07;;;;;;;25.96;54.44;98627.44;5084722;28;20051;-70
2023/07/12 01:06:32;;;;;;;8.32;7.30;;;;;;;25.82;54.76;98626.53;5085906;28;20051;-69
2023/07/12 01:09:06;;;;;;;8.95;6.88;;;;;;;25.96;54.49;98643.75;5085577;28;20044;-70
2023/07/12 01:11:32;;;;;;;;;;;;;;;25.89;55.05;98654.56;5086123;28;20074;-70
2023/07/12 01:13:59;;;;;;;8.98;7.15;;;;;;;25.96;54.38;98653.75;5085598;28;19962;-71
2023/07/12 01:16:26;;;;;;;9.18;7.25;;;;;;;25.97;54.59;98655.44;5086147;28;20044;-70
2023/07/12 01:18:54;;;;;;;8.32;7.45;;;;;;;25.83;55.18;98657.22;5086166;28;20204;-70
2023/07/12 01:21:27;;;;;;;11.77;8.43;;;;;;;25.82;55.42;98663.69;5085818;28;20098;-70
2023/07/12 01:23:54;;;;;;;13.68;10.20;;;;;;;25.64;55.95;98655.22;5085415;28;20288;-70
2023/07/12 01:26:24;;;;;;;12.82;11.30;;;;;;;24.71;55.55;98477.38;5085567;28;20378;-69
2023/07/12 01:28:54;;;;;;;12.02;10.57;;;;;;;25.85;55.51;98649.72;5085421;28;20044;-69
2023/07/12 01:31:22;;;;;;;10.25;8.85;;;;;;;25.94;54.93;98655.84;5084589;28;20110;-70
2023/07/12 01:33:49;;;;;;;9.00;8.18;;;;;;;25.92;54.85;98694.03;5085632;28;20304;-69
2023/07/12 01:36:16;;;;;;;11.32;7.80;;;;;;;25.89;55.44;98822.84;5085956;28;20045;-69
2023/07/12 01:38:45;;;;;;;9.88;8.00;;;;;;;25.76;55.53;98963.88;5085961;28;20098;-69
2023/07/12 01:41:12;;;;;;;13.80;8.15;;;;;;;25.46;56.22;98970.38;5085595;28;20056;-70
2023/07/12 01:43:39;;;;;;;9.30;8.23;;;;;;;25.39;55.57;98874.53;5085478;28;20044;-70
2023/07/12 01:46:05;;;;;;;10.10;8.50;;;;;;;25.51;55.71;98851.28;5085518;28;20091;-69
2023/07/12 01:48:32;;;;;;;8.88;7.97;;;;;;;25.62;55.34;98901.50;5085488;28;20041;-70
2023/07/12 01:51:00;;;;;;;10.82;7.38;;;;;;;25.62;54.84;98888.75;5085769;28;20048;-69
2023/07/12 01:53:27;;;;;;;9.25;8.35;;;;;;;25.46;54.43;98851.03;5085461;28;20048;-70
2023/07/12 01:55:55;;;;;;;24.00;7.90;;;;;;;25.50;53.76;98872.16;5085371;28;20059;-70
2023/07/12 01:58:22;;;;;;;11.43;7.28;;;;;;;25.46;53.89;98861.88;5085413;28;20090;-70
2023/07/12 02:00:51;;;;;;;11.10;8.02;;;;;;;25.11;53.81;98828.25;5084290;28;20086;-69
2023/07/12 02:03:17;;;;;;;11.50;6.65;;;;;;;25.26;52.07;98851.59;5085559;28;20048;-69
2023/07/12 02:05:44;;;;;;;11.52;5.10;;;;;;;25.19;51.50;98836.28;5084214;28;20047;-69
2023/07/12 02:08:12;;;;;;;12.98;5.55;;;;;;;25.34;51.00;98839.00;5085285;28;20044;-69
2023/07/12 02:10:38;;;;;;;12.20;4.63;;;;;;;25.11;50.49;98841.81;5085301;28;20059;-69
2023/07/12 02:13:07;;;;;;;8.20;3.92;;;;;;;25.05;50.29;98824.44;5087237;28;20052;-69
2023/07/12 02:15:34;;;;;;;13.60;5.07;;;;;;;25.05;50.26;98815.47;5088979;28;20067;-69
2023/07/12 02:18:01;;;;;;;10.57;4.40;;;;;;;25.19;50.21;98822.72;5089258;28;20098;-70
2023/07/12 02:20:28;;;;;;;14.73;3.97;;;;;;;24.81;50.29;98830.13;5089233;28;20044;-70
2023/07/12 02:22:55;;;;;;;11.55;3.83;;;;;;;24.80;50.59;98842.84;5088733;28;20036;-69
2023/07/12 02:25:22;;;;;;;11.27;3.85;;;;;;;24.77;50.60;98845.94;5088537;28;20102;-69
2023/07/12 02:27:50;;;;;;;9.73;3.42;;;;;;;24.59;50.70;98830.03;5088782;28;20090;-69
2023/07/12 02:30:20;;;;;;;11.27;3.20;;;;;;;24.52;50.47;98803.88;5088840;28;20051;-70
2023/07/12 02:32:48;;;;;;;11.50;3.15;;;;;;;24.29;50.46;98780.44;5088949;28;20060;-70
2023/07/12 02:35:16;;;;;;;13.60;3.35;;;;;;;24.57;50.57;98818.53;5088689;28;20331;-69
2023/07/12 02:37:42;;;;;;;9.80;2.97;;;;;;;24.66;50.10;98818.47;5088315;28;20304;-69
2023/07/12 02:40:11;;;;;;;6.70;3.00;;;;;;;24.55;50.39;98823.31;5088859;28;20058;-69
2023/07/12 02:42:38;;;;;;;9.73;3.28;;;;;;;24.61;50.16;98822.56;5088502;28;20057;-69
2023/07/12 02:45:07;;;;;;;5.13;2.90;;;;;;;24.48;50.20;98816.09;5088399;28;20055;-69
2023/07/12 02:47:35;;;;;;;6.63;3.08;;;;;;;24.52;50.20;98829.09;5088491;28;20105;-69
2023/07/12 02:50:03;;;;;;;6.82;2.72;;;;;;;24.46;50.35;98834.41;5088311;28;20048;-69
2023/07/12 02:52:30;;;;;;;9.77;2.92;;;;;;;24.40;50.42;98841.41;5088655;28;20212;-70
2023/07/12 02:54:57;;;;;;;4.80;2.30;;;;;;;24.44;50.15;98831.88;5088051;28;20090;-70
2023/07/12 02:57:24;;;;;;;6.38;2.30;;;;;;;24.44;50.32;98836.47;5088577;28;20040;-69
2023/07/12 02:59:50;;;;;;;6.50;2.40;;;;;;;24.26;50.66;98809.75;5088282;28;20044;-69
2023/07/12 03:02:18;;;;;;;6.10;2.38;;;;;;;24.12;49.92;98735.59;5087911;28;20219;-69
2023/07/12 03:04:46;;;;;;;4.68;2.25;;;;;;;23.76;50.34;98659.69;5088295;28;20098;-71
2023/07/12 03:07:13;;;;;;;3.95;2.25;;;;;;;24.24;49.96;98755.78;5088101;28;20044;-69
2023/07/12 03:09:40;;;;;;;7.05;2.30;;;;;;;24.61;49.47;98772.94;5087792;28;20048;-69
2023/07/12 03:12:07;;;;;;;3.75;2.55;;;;;;;24.41;49.88;98774.53;5088008;28;20044;-69
2023/07/12 03:14:36;;;;;;;6.22;2.80;;;;;;;24.48;49.78;98786.31;5088263;28;20040;-69
2023/07/12 03:17:03;;;;;;;6.88;2.60;;;;;;;24.32;50.03;98790.88;5087883;28;20112;-69
2023/07/12 03:19:30;;;;;;;3.85;2.20;;;;;;;24.38;49.80;98800.13;5088174;28;20051;-69
2023/07/12 03:21:58;;;;;;;3.17;2.20;;;;;;;24.42;49.87;98817.69;5088112;28;20288;-69
2023/07/12 03:24:25;;;;;;;7.90;2.38;;;;;;;22.49;50.00;98497.47;5087222;28;20048;-70
2023/07/12 03:26:51;;;;;;;5.38;2.03;;;;;;;24.38;50.14;98819.09;5087723;28;20066;-69
2023/07/12 03:29:18;;;;;;;4.05;2.10;;;;;;;24.43;50.13;98808.53;5088044;28;20040;-70
2023/07/12 03:31:45;;;;;;;7.00;2.13;;;;;;;24.29;50.29;98806.66;5087173;28;20060;-70
2023/07/12 03:34:12;;;;;;;3.65;1.90;;;;;;;24.40;50.03;98792.66;5087517;28;20297;-69
2023/07/12 03:36:40;;;;;;;4.65;2.60;;;;;;;24.17;50.62;98786.47;5087221;28;20327;-70
2023/07/12 03:39:09;;;;;;;3.97;2.22;;;;;;;24.32;50.41;98780.06;5087132;28;20071;-69
2023/07/12 03:41:36;;;;;;;5.13;2.08;;;;;;;24.37;50.06;98760.53;5087371;28;20193;-69
2023/07/12 03:44:02;;;;;;;5.35;2.15;;;;;;;24.31;50.18;98755.88;5086999;28;20346;-69
2023/07/12 03:46:29;;;;;;;3.88;1.77;;;;;;;24.36;50.17;98766.97;5087270;28;20060;-69
2023/07/12 03:48:56;;;;;;;3.78;1.85;;;;;;;24.37;50.28;98751.56;5087247;28;20351;-69
2023/07/12 03:51:23;;;;;;;5.22;2.05;;;;;;;24.30;50.24;98737.94;5086961;28;20228;-69
2023/07/12 03:53:51;;;;;;;5.60;2.25;;;;;;;24.15;50.28;98710.88;5086863;28;20040;-69
2023/07/12 03:56:19;;;;;;;4.88;2.08;;;;;;;24.36;50.20;98731.78;5087238;28;20044;-69
2023/07/12 03:58:45;;;;;;;3.13;1.70;;;;;;;24.23;49.69;98708.06;5087081;28;20103;-69
2023/07/12 04:01:12;;;;;;;4.15;1.90;;;;;;;24.29;50.17;98726.28;5087162;28;20098;-69
2023/07/12 04:03:40;;;;;;;4.55;1.90;;;;;;;24.45;49.39;98736.06;5086827;28;20051;-69
2023/07/12 04:06:09;;;;;;;4.15;2.28;;;;;;;24.45;49.54;98727.94;5086662;28;20040;-70
2023/07/12 04:08:36;;;;;;;5.32;2.13;;;;;;;24.44;49.94;98723.56;5087066;28;20239;-69
2023/07/12 04:11:04;;;;;;;2.95;2.13;;;;;;;24.42;50.23;98709.34;5086626;28;20044;-69
2023/07/12 04:13:32;;;;;;;4.03;1.73;;;;;;;24.49;49.42;98704.88;5085655;28;20041;-69
2023/07/12 04:16:01;;;;;;;4.93;1.88;;;;;;;24.54;49.12;98698.88;5086962;28;20094;-69
2023/07/12 04:18:28;;;;;;;3.30;1.70;;;;;;;24.59;49.31;98694.56;5086651;28;20289;-69
2023/07/12 04:20:58;;;;;;;5.80;2.40;;;;;;;24.48;49.98;98686.09;5086564;28;20044;-69
2023/07/12 04:23:25;;;;;;;5.75;2.60;;;;;;;24.38;49.93;98693.69;5086759;28;20040;-69
2023/07/12 04:25:58;;;;;;;4.35;2.55;;;;;;;24.40;49.44;98687.03;5086728;28;20040;-69
2023/07/12 04:28:26;;;;;;;6.03;2.63;;;;;;;24.41;50.00;98687.88;5086755;28;20052;-69
2023/07/12 04:30:54;;;;;;;4.95;2.20;;;;;;;24.58;49.42;98692.06;5086090;28;20118;-69
2023/07/12 04:33:21;;;;;;;4.55;2.10;;;;;;;24.52;48.97;98681.97;5085154;28;20048;-69
2023/07/12 04:35:48;;;;;;;2.83;1.73;;;;;;;24.54;49.29;98667.22;5085569;28;20109;-70
2023/07/12 04:38:14;;;;;;;3.58;2.03;;;;;;;24.53;49.11;98673.66;5086009;28;20052;-70
2023/07/12 04:40:41;;;;;;;5.63;2.30;;;;;;;24.58;49.01;98676.63;5086081;28;20090;-70
2023/07/12 04:43:08;;;;;;;6.68;2.03;;;;;;;24.70;49.25;98673.47;5084992;28;20289;-70
2023/07/12 04:45:34;;;;;;;3.67;2.05;;;;;;;24.67;49.74;98677.41;5086149;28;20040;-70
2023/07/12 04:48:02;;;;;;;3.85;2.28;;;;;;;24.66;49.48;98672.16;5086369;28;20044;-69
2023/07/12 04:50:30;;;;;;;3.00;2.10;;;;;;;24.65;49.55;98660.50;5085856;28;20040;-69
2023/07/12 04:52:57;;;;;;;3.70;1.92;;;;;;;24.61;49.60;98664.59;5086068;28;20097;-69
2023/07/12 04:55:26;;;;;;;6.55;2.67;;;;;;;24.56;48.87;98659.75;5085773;28;20044;-69
2023/07/12 04:57:52;;;;;;;5.07;2.33;;;;;;;24.61;48.90;98680.84;5085997;28;20095;-69
2023/07/12 05:00:19;;;;;;;4.95;2.15;;;;;;;24.53;48.78;98657.41;5085930;28;20052;-69
2023/07/12 05:02:47;;;;;;;3.28;2.08;;;;;;;24.52;49.06;98680.09;5085930;28;20300;-70
2023/07/12 05:05:15;;;;;;;5.18;2.08;;;;;;;24.68;48.90;98695.34;5086301;28;20044;-69
2023/07/12 05:07:42;;;;;;;7.40;2.33;;;;;;;24.69;49.11;98694.31;5085654;28;20041;-69
2023/07/12 05:10:11;;;;;;;3.53;2.22;;;;;;;24.78;48.49;98698.56;5085820;28;20044;-69
2023/07/12 05:12:39;;;;;;;3.65;2.15;;;;;;;24.67;48.78;98695.53;5086394;28;20059;-69
2023/07/12 05:15:07;;;;;;;2.90;2.00;;;;;;;24.69;48.96;98705.16;5085522;28;20040;-69
2023/07/12 05:17:34;;;;;;;4.03;2.08;;;;;;;24.75;48.43;98700.81;5085772;28;20041;-69
2023/07/12 05:20:01;;;;;;;4.60;2.67;;;;;;;24.45;49.29;98675.63;5084565;28;20304;-70
2023/07/12 05:22:29;;;;;;;5.57;4.07;;;;;;;24.62;49.60;98690.66;5085425;28;20033;-69
2023/07/12 05:24:57;;;;;;;5.22;2.80;;;;;;;24.76;48.81;98676.25;5085649;28;20044;-70
2023/07/12 05:27:24;;;;;;;4.38;2.40;;;;;;;24.78;48.74;98685.03;5085908;28;20106;-70
2023/07/12 05:29:51;;;;;;;3.90;2.35;;;;;;;24.78;48.65;98692.31;5085615;28;20045;-70
2023/07/12 05:32:18;;;;;;;3.90;2.30;;;;;;;24.82;48.08;98691.75;5085176;28;20048;-69
2023/07/12 05:34:45;;;;;;;5.30;2.63;;;;;;;24.82;47.91;98689.03;5085576;28;20056;-70
2023/07/12 05:37:12;;;;;;;5.28;2.40;;;;;;;24.26;48.12;98647.28;5085852;28;20045;-69
2023/07/12 05:39:40;;;;;;;3.70;2.00;;;;;;;24.62;48.48;98704.19;5085200;28;20158;-69
2023/07/12 05:42:08;;;;;;;2.92;1.90;;;;;;;24.69;48.48;98693.47;5086076;28;20112;-69
2023/07/12 05:44:34;;;;;;;6.30;2.47;;;;;;;24.79;48.63;98686.72;5085702;28;20041;-69
2023/07/12 05:47:01;;;;;;;3.38;1.98;;;;;;;24.86;48.56;98681.34;5087539;28;20067;-69
2023/07/12 05:49:28;;;;;;;3.08;1.90;;;;;;;24.90;48.62;98699.75;5089459;28;20102;-70
2023/07/12 05:51:54;;;;;;;5.07;2.33;;;;;;;24.87;48.25;98697.44;5089713;28;20051;-70
2023/07/12 05:54:21;;;;;;;4.38;2.10;;;;;;;24.95;48.78;98699.19;5089127;28;20048;-69
2023/07/12 05:56:49;;;;;;;4.55;2.50;;;;;;;24.94;48.85;98686.66;5089374;28;20086;-70
2023/07/12 05:59:16;;;;;;;6.10;2.75;;;;;;;24.69;49.08;98683.47;5089346;28;20056;-70
2023/07/12 06:01:43;;;;;;;4.65;2.53;;;;;;;24.76;49.04;98683.53;5089853;28;20049;-70
2023/07/12 06:04:11;;;;;;;3.40;2.22;;;;;;;24.83;48.88;98676.31;5088063;28;20052;-70
2023/07/12 06:06:38;;;;;;;4.97;2.33;;;;;;;24.92;48.91;98681.44;5088402;28;20051;-69
2023/07/12 06:09:05;;;;;;;4.93;2.25;;;;;;;24.98;48.66;98674.41;5089178;28;20049;-69
2023/07/12 06:11:31;;;;;;;9.57;2.40;;;;;;;25.02;48.89;98688.44;5088854;28;20312;-69
2023/07/12 06:13:59;;;;;;;5.90;3.95;;;;;;;24.92;48.32;98684.13;5088695;28;20040;-69
2023/07/12 06:16:53;;;;;;;5.53;2.88;;;;;;;25.02;48.34;98686.56;5103636;27;20620;-69
2023/07/12 06:19:20;;;;;;;4.97;2.35;;;;;;;25.04;47.77;98678.25;5103362;28;20044;-69
2023/07/12 06:21:46;;;;;;;8.35;2.70;;;;;;;25.14;47.86;98693.16;5103121;28;20040;-68
2023/07/12 06:24:13;;;;;;;6.65;2.80;;;;;;;25.19;48.05;98698.84;5103244;28;20044;-69
2023/07/12 06:26:40;;;;;;;6.70;2.95;;;;;;;25.26;48.13;98705.16;5103155;28;20044;-69
2023/07/12 06:29:07;;;;;;;6.10;2.28;;;;;;;25.09;47.64;98702.91;5103080;28;20056;-68
2023/07/12 06:31:33;;;;;;;3.90;1.98;;;;;;;25.17;47.79;98713.63;5103358;28;20036;-69
2023/07/12 06:34:03;;;;;;;8.98;2.78;;;;;;;25.18;47.63;98712.59;5102986;28;20105;-69
2023/07/12 06:36:31;;;;;;;6.50;4.85;;;;;;;25.20;47.55;98718.66;5102933;28;20040;-69
2023/07/12 06:38:58;;;;;;;8.35;3.45;;;;;;;25.25;48.19;98714.34;5103135;28;20036;-68
2023/07/12 06:41:24;;;;;;;5.93;3.60;;;;;;;25.18;48.00;98724.28;5102831;28;20059;-69
2023/07/12 06:43:51;;;;;;;6.72;3.03;;;;;;;25.26;48.08;98724.16;5101771;28;20044;-68
2023/07/12 06:46:18;;;;;;;11.73;3.50;;;;;;;25.25;48.13;98727.06;5103032;28;20047;-69
2023/07/12 06:48:45;;;;;;;6.90;3.30;;;;;;;25.29;47.86;98733.75;5102735;28;20079;-69
2023/07/12 06:51:13;;;;;;;5.85;2.67;;;;;;;25.06;47.86;98717.69;5102475;28;20363;-69
2023/07/12 06:53:40;;;;;;;5.35;2.97;;;;;;;25.09;47.75;98713.75;5102443;28;20044;-69
2023/07/12 06:56:06;;;;;;;6.80;2.30;;;;;;;25.16;47.86;98712.78;5102650;28;20045;-68
2023/07/12 06:58:34;;;;;;;4.10;2.33;;;;;;;25.34;47.86;98714.22;5102374;28;20041;-69
2023/07/12 07:01:00;;;;;;;4.40;2.33;;;;;;;25.22;47.47;98712.00;5101380;28;20044;-69
2023/07/12 07:03:27;;;;;;;5.45;2.20;;;;;;;25.28;47.75;98710.38;5101307;28;20048;-69
2023/07/12 07:05:54;;;;;;;3.28;1.95;;;;;;;25.22;47.43;98727.44;5102401;28;20044;-69
2023/07/12 07:08:23;;;;;;;3.83;2.15;;;;;;;25.25;47.47;98721.63;5102651;28;20044;-70
2023/07/12 07:10:51;;;;;;;5.57;2.80;;;;;;;25.35;47.68;98740.31;5102192;28;20051;-70
2023/07/12 07:13:18;;;;;;;7.25;2.22;;;;;;;25.33;47.31;98739.66;5101631;28;20040;-70
2023/07/12 07:15:46;;;;;;;3.53;2.17;;;;;;;25.01;47.19;98686.75;5101697;28;20255;-70
2023/07/12 07:18:12;;;;;;;4.25;1.83;;;;;;;25.54;47.42;98755.94;5102389;28;20103;-69
2023/07/12 07:20:40;;;;;;;5.30;2.22;;;;;;;25.55;46.98;98752.19;5102061;28;20044;-69
2023/07/12 07:23:07;;;;;;;4.75;2.25;;;;;;;25.84;47.11;98745.75;5101755;28;20243;-69
2023/07/12 07:25:35;;;;;;;4.30;2.22;;;;;;;26.07;45.81;98743.66;5101724;28;20094;-69
2023/07/12 07:28:02;;;;;;;8.50;2.30;;;;;;;26.09;46.02;98744.31;5088946;28;20308;-70
2023/07/12 07:30:29;;;;;;;5.75;2.88;;;;;;;26.28;45.39;98752.78;5088702;28;20260;-69
2023/07/12 07:32:55;;;;;;;4.00;2.13;;;;;;;26.38;45.46;98743.22;5088100;28;20110;-69
2023/07/12 07:35:23;;;;;;;5.25;2.55;;;;;;;26.33;44.79;98740.28;5088407;28;20040;-69
2023/07/12 07:37:51;;;;;;;6.03;2.30;;;;;;;26.11;44.66;98635.50;5087178;28;20037;-69
2023/07/12 07:40:18;;;;;;;6.63;2.85;;;;;;;26.75;44.81;98749.28;5088232;28;20071;-68
2023/07/12 07:42:46;;;;;;;3.80;2.13;;;;;;;26.82;44.63;98747.44;5088505;28;20036;-69
2023/07/12 07:45:13;;;;;;;4.88;2.65;;;;;;;26.79;44.01;98739.69;5087218;28;20041;-69
2023/07/12 07:47:40;;;;;;;3.60;2.45;;;;;;;26.69;43.77;98731.09;5087856;28;20366;-69
2023/07/12 07:50:08;;;;;;;5.50;2.28;;;;;;;27.04;43.09;98729.94;5088029;28;20094;-69
2023/07/12 07:52:35;;;;;;;7.70;2.60;;;;;;;27.12;43.49;98739.78;5088276;28;20170;-69
2023/07/12 07:55:02;;;;;;;6.25;2.53;;;;;;;27.10;43.50;98731.00;5087510;28;20051;-68
2023/07/12 07:57:28;;;;;;;4.63;2.30;;;;;;;27.26;43.06;98733.38;5087119;28;20082;-69
2023/07/12 07:59:59;;;;;;;3.95;2.10;;;;;;;27.38;42.83;98741.75;5088088;28;20041;-69
2023/07/12 08:02:25;;;;;;;5.25;2.20;;;;;;;27.50;42.97;98734.66;5087895;28;20048;-69
2023/07/12 08:04:53;;;;;;;6.07;2.28;;;;;;;27.63;42.40;98698.47;5087381;28;20040;-69
2023/07/12 08:07:19;;;;;;;6.75;2.30;;;;;;;27.78;42.02;98704.53;5087784;28;20044;-69
2023/07/12 08:09:46;;;;;;;4.38;2.35;;;;;;;27.88;41.75;98704.97;5087515;28;20055;-70
2023/07/12 08:12:13;;;;;;;4.25;2.30;;;;;;;28.00;41.68;98694.28;5087741;28;20044;-69
2023/07/12 08:14:39;;;;;;;5.32;2.60;;;;;;;28.21;41.30;98688.56;5087419;28;20040;-70
2023/07/12 08:17:08;;;;;;;4.82;2.70;;;;;;;28.44;40.91;98683.50;5087519;28;20047;-71
2023/07/12 08:19:35;;;;;;;6.18;2.60;;;;;;;28.49;40.62;98680.13;5087472;28;20044;-69
2023/07/12 08:22:01;;;;;;;4.45;2.20;;;;;;;28.21;40.38;98693.19;5087415;28;20052;-70
2023/07/12 08:24:28;;;;;;;5.30;2.58;;;;;;;28.38;41.02;98686.22;5087638;28;20048;-70
2023/07/12 08:26:55;;;;;;;6.47;2.67;;;;;;;28.80;39.45;98690.25;5087057;28;20285;-69
2023/07/12 08:29:21;;;;;;;7.18;2.30;;;;;;;29.00;40.13;98701.06;5087188;28;20040;-70
2023/07/12 08:31:48;;;;;;;9.55;2.45;;;;;;;28.82;39.35;98696.34;5087185;28;20111;-69
2023/07/12 08:34:16;;;;;;;4.88;2.88;;;;;;;28.92;38.77;98701.31;5087224;28;20239;-69
2023/07/12 08:36:43;;;;;;;9.23;2.50;;;;;;;28.91;39.14;98705.09;5087026;28;20051;-70
2023/07/12 08:39:09;;;;;;;4.60;2.53;;;;;;;28.97;38.77;98699.59;5085752;28;20149;-70
2023/07/12 08:41:40;;;;;;;6.15;2.90;;;;;;;28.99;38.74;98702.13;5086695;28;20044;-69
2023/07/12 08:44:13;;;;;;;9.10;2.92;;;;;;;29.12;38.77;98706.69;5086843;28;20062;-70
2023/07/12 08:46:45;;;;;;;4.95;2.53;;;;;;;29.05;38.20;98706.72;5085525;28;20071;-70
2023/07/12 08:49:15;;;;;;;5.68;2.40;;;;;;;29.26;37.89;98698.19;5086991;28;20197;-69
2023/07/12 08:51:43;;;;;;;6.43;2.25;;;;;;;29.67;38.41;98707.78;5087000;28;20105;-70
2023/07/12 08:54:22;;;;;;;5.47;2.60;;;;;;;29.92;37.55;98699.56;5086792;28;20094;-69
2023/07/12 08:56:49;;;;;;;5.03;2.42;;;;;;;30.09;37.74;98708.84;5086893;28;20082;-70
2023/07/12 08:59:17;;;;;;;5.18;2.75;;;;;;;29.96;37.31;98704.38;5086639;28;20052;-70
2023/07/12 09:01:46;;;;;;;4.28;2.80;;;;;;;29.75;37.32;98679.34;5086378;28;20044;-70
2023/07/12 09:04:21;;;;;;;6.47;2.53;;;;;;;29.91;37.78;98711.56;5086643;28;20052;-68
2023/07/12 09:06:50;;;;;;;4.78;2.33;;;;;;;29.75;38.00;98723.06;5086803;28;20040;-69
2023/07/12 09:09:18;;;;;;;4.72;2.65;;;;;;;29.63;37.29;98715.59;5086271;28;20049;-70
2023/07/12 09:11:46;;;;;;;10.07;3.28;;;;;;;29.42;37.86;98723.28;5086238;28;20284;-70
2023/07/12 09:14:17;;;;;;;4.20;2.53;;;;;;;29.56;37.91;98730.31;5086563;28;20056;-69
2023/07/12 09:16:47;;;;;;;6.45;2.55;;;;;;;29.87;37.77;98729.47;5085871;28;20216;-70
2023/07/12 09:19:15;;;;;;;8.80;3.17;;;;;;;30.04;38.13;98725.09;5086887;28;20235;-70
2023/07/12 09:21:49;;;;;;;8.48;3.42;;;;;;;29.92;38.69;98725.00;5086525;28;20040;-70
2023/07/12 09:24:21;;;;;;;7.10;3.50;;;;;;;30.12;39.06;98715.78;5086250;28;20052;-70
2023/07/12 09:26:50;;;;;;;6.53;2.80;;;;;;;30.22;38.90;98730.66;5085177;28;20224;-69
2023/07/12 09:29:21;;;;;;;4.35;3.08;;;;;;;29.84;38.97;98703.44;5085839;28;20053;-70
2023/07/12 09:31:51;;;;;;;4.95;2.58;;;;;;;29.67;39.85;98661.38;5086471;28;20116;-70
2023/07/12 09:34:21;;;;;;;5.70;3.30;;;;;;;29.99;38.79;98724.94;5086085;28;20335;-69
2023/07/12 09:36:57;;;;;;;8.13;3.40;;;;;;;30.04;38.56;98723.19;5085997;28;20094;-69
2023/07/12 09:39:25;;;;;;;5.63;3.17;;;;;;;30.20;38.71;98718.25;5086004;28;20052;-69
2023/07/12 09:41:57;;;;;;;7.63;3.33;;;;;;;30.39;38.42;98714.50;5086022;28;20073;-70
2023/07/12 09:44:26;;;;;;;5.35;2.72;;;;;;;30.44;38.34;98703.69;5085581;28;20071;-70
2023/07/12 09:47:00;;;;;;;9.07;3.85;;;;;;;30.28;37.86;98660.59;5085512;28;20327;-70
2023/07/12 09:49:33;;;;;;;13.20;3.33;;;;;;;30.77;38.08;98697.84;5085694;28;20045;-69
2023/07/12 09:52:13;;;;;;;5.72;2.88;;;;;;;31.09;37.74;98711.31;5085380;28;20079;-69
2023/07/12 09:54:47;;;;;;;6.18;3.28;;;;;;;30.97;37.59;98714.00;5085938;28;20051;-70
2023/07/12 09:57:18;;;;;;;6.88;3.35;;;;;;;31.15;37.40;98710.38;5085639;28;20281;-70
2023/07/12 09:59:57;;;;;;;7.95;3.85;;;;;;;30.84;37.10;98709.53;5085057;28;20040;-69
2023/07/12 10:02:32;;;;;;;9.88;3.70;;;;;;;30.94;37.48;98707.09;5085920;28;20318;-70
2023/07/12 10:05:04;;;;;;;6.18;3.10;;;;;;;30.81;36.86;98627.09;5085968;28;20082;-70
2023/07/12 10:07:45;;;;;;;5.35;3.05;;;;;;;30.89;34.44;98652.22;5118775;28;20044;-69
2023/07/12 10:10:22;;;;;;;5.03;2.33;;;;;;;31.37;32.97;98699.75;5084482;28;20074;-70
2023/07/12 10:13:00;;;;;;;5.20;2.40;;;;;;;31.59;34.00;98709.09;5085106;28;20048;-69
2023/07/12 10:15:31;;;;;;;3.90;2.00;;;;;;;31.29;34.05;98703.69;5085255;28;20064;-69
2023/07/12 10:17:58;;;;;;;6.53;2.90;;;;;;;31.48;36.84;98699.78;5085321;28;20059;-69
2023/07/12 10:20:25;;;;;;;3.88;1.80;;;;;;;31.07;35.13;98713.44;5084439;28;20189;-69
2023/07/12 10:22:54;;;;;;;3.97;2.13;;;;;;;31.21;38.97;98703.97;5085616;28;20107;-67
2023/07/12 10:25:25;;;;;;;3.50;1.98;;;;;;;31.32;39.03;98699.63;5085263;28;20056;-70
2023/07/12 10:27:59;;;;;;;4.18;2.35;;;;;;;31.27;39.45;98701.16;5085325;28;20285;-70
2023/07/12 10:30:29;;;;;;;6.82;2.45;;;;;;;31.17;37.99;98698.13;5085218;28;20060;-69
2023/07/12 10:33:02;;;;;;;6.03;2.10;;;;;;;30.69;36.51;98698.16;5085105;28;20236;-70
2023/07/12 10:35:36;;;;;;;;;;;;;;;30.91;37.38;98701.25;5085829;28;20292;-69
2023/07/12 10:38:07;;;;;;;4.60;2.42;;;;;;;30.68;37.69;98641.78;5085072;28;19916;-70
2023/07/12 10:40:41;;;;;;;6.93;2.63;;;;;;;30.97;36.92;98679.28;5084868;28;20316;-70
2023/07/12 10:43:16;;;;;;;4.63;2.47;;;;;;;30.98;38.42;98685.56;5085296;28;20070;-70
2023/07/12 10:45:44;;;;;;;4.78;2.20;;;;;;;31.07;36.03;98680.59;5085475;28;20055;-70
2023/07/12 10:48:22;;;;;;;6.25;2.53;;;;;;;31.25;34.43;98675.94;5085483;28;20048;-70
2023/07/12 10:50:50;;;;;;;5.38;2.28;;;;;;;31.40;36.22;98682.88;5085222;28;20058;-70
2023/07/12 10:53:31;;;;;;;3.38;1.98;;;;;;;31.20;34.94;98672.19;5085043;28;20322;-70
2023/07/12 10:56:13;;;;;;;4.53;2.15;;;;;;;30.68;35.45;98603.47;5085034;28;20052;-70
2023/07/12 10:58:50;;;;;;;3.60;2.25;;;;;;;31.05;35.35;98671.78;5085492;28;20215;-71
2023/07/12 11:01:53;;;;;;;4.43;2.15;;;;;;;31.26;34.16;98682.25;5084992;28;20093;-70
2023/07/12 11:04:27;;;;;;;4.45;2.35;;;;;;;31.20;34.24;98688.63;5088977;28;20334;-71
2023/07/12 11:07:00;;;;;;;4.30;1.90;;;;;;;31.27;34.82;98683.91;5088911;28;20090;-71
2023/07/12 11:09:50;;;;;;;;;;;;;;;31.29;33.72;98679.03;5089344;28;20055;-70
2023/07/12 11:12:33;;;;;;;4.30;1.90;;;;;;;31.38;33.35;98688.59;5088291;28;20238;-70
2023/07/12 11:15:23;;;;;;;3.08;1.85;;;;;;;31.33;33.19;98679.41;5088305;28;20060;-70
2023/07/12 11:17:57;;;;;;;3.22;2.17;;;;;;;31.33;33.14;98687.63;5088151;28;20052;-70
2023/07/12 11:20:26;;;;;;;3.20;2.00;;;;;;;31.16;33.08;98692.88;5088858;28;20067;-70
2023/07/12 11:23:29;;;;;;;3.25;2.10;;;;;;;31.28;33.27;98688.31;5088218;28;20106;-70
2023/07/12 11:26:03;;;;;;;5.83;2.17;;;;;;;31.03;33.51;98706.75;5088234;28;20289;-69
2023/07/12 11:28:41;;;;;;;4.10;2.17;;;;;;;31.07;32.69;98689.66;5088204;28;20213;-70
2023/07/12 11:31:26;;;;;;;5.72;2.10;;;;;;;31.02;32.24;98691.41;5088050;28;20045;-70
2023/07/12 11:33:56;;;;;;;6.68;2.45;;;;;;;31.13;32.34;98688.72;5087836;28;20052;-70
2023/07/12 11:36:25;;;;;;;7.80;2.30;;;;;;;31.17;32.05;98683.63;5088730;28;20040;-69
2023/07/12 11:38:54;;;;;;;3.08;1.90;;;;;;;31.12;31.94;98681.56;5087800;28;20052;-69
2023/07/12 11:41:25;;;;;;;4.45;2.20;;;;;;;31.11;31.88;98690.84;5087977;28;20056;-70
2023/07/12 11:43:59;;;;;;;3.10;2.00;;;;;;;31.25;33.26;98681.41;5088125;28;20044;-70
2023/07/12 11:46:30;;;;;;;6.72;2.08;;;;;;;31.25;33.88;98675.09;5088356;28;20048;-70
2023/07/12 11:49:03;;;;;;;3.78;1.67;;;;;;;31.33;32.52;98676.66;5086994;28;20350;-70
2023/07/12 11:51:34;;;;;;;;;;;;;;;31.38;32.51;98668.59;5088825;28;20048;-70
2023/07/12 11:54:02;;;;;;;7.13;2.30;;;;;;;31.32;33.37;98681.31;5086884;28;19939;-70
2023/07/12 11:56:30;;;;;;;3.35;2.10;;;;;;;31.05;33.03;98669.06;5087644;28;20308;-70
2023/07/12 11:58:56;;;;;;;6.93;2.22;;;;;;;31.12;33.02;98678.00;5087935;28;20052;-69
2023/07/12 12:01:23;;;;;;;4.75;2.03;;;;;;;31.00;32.88;98666.19;5088147;28;20041;-70
2023/07/12 12:03:51;;;;;;;4.63;2.30;;;;;;;30.93;33.03;98664.38;5088076;28;20040;-70
2023/07/12 12:06:20;;;;;;;4.68;2.40;;;;;;;31.00;33.16;98667.03;5087673;28;20052;-69
2023/07/12 12:08:55;;;;;;;4.90;2.55;;;;;;;31.05;33.17;98645.25;5087682;28;20045;-70
2023/07/12 12:11:22;;;;;;;4.25;2.60;;;;;;;31.16;32.58;98652.66;5087579;28;20048;-70
2023/07/12 12:13:53;;;;;;;3.97;2.58;;;;;;;30.91;33.60;98628.22;5087373;28;20044;-70